Skip Navigation Links Skip Navigation Links

Current Weather

Schaffen, Belgium

For information only: do not use for flight planning or navigation.
Latest weather
Observation time Monday, October 18, 2021 9:25 PM CEST
Local time Monday, October 18, 2021 9:52 PM CEST
Flight conditions Visual Meteorological Conditions
Winds
Wind direction South (180°)
Wind speed 8 mph
Visibility 6.2 mi.
Sky condition
Ceiling 21,000 ft. broken clouds
Cloud layer broken clouds 21,000 ft.
Temperature 55°F
Dewpoint 50°F
Altimeter 30.12 in.Hg
Derived measurements
Relative humidity 82%
Density altitude -262 ft.
Remarks
Fully automated report.
METAR EBDT 181925Z AUTO 18007KT 9999 BKN210/// 13/10 Q1020 BLU

Settings

Location code

InnerDrive.Weather 4.0.6770.0 Release CLR 4.0.30319.42000
Copyright ©2018 Inner Drive Technology. All rights reserved. Portions Copyright ©1986-2018 David Braverman.

Find weather

Site navigation


Skip Navigation Links

Place info

Page info

PayPal - The safer, easier way to pay online!

Return home.

Copyright ©2021 Inner Drive Technology. Purveyors of fine, hand-crafted computer software. Page printed 2021-10-18T19:52:41 UTC.